VKG1648 ESSA-LGRP
Flight info
| Callsign | VKG1648 |
|---|---|
| Flight time | 3h 33m |
| Altitude | 37000 |
| Route | BABAP T316 NEPVA DCT OLANU/N0466F380 DCT PENOR/N0459F370 N133 IRLUN DCT PENEX DCT NUBLI/N0457F390 DCT ORTEB DCT LENOV DCT NARKA DCT ORA DCT GANNA DCT SODGO DCT OVDOT DCT LOMOS DCT WAK DCT NIKTI DCT STINO DCT MES UN139 LURUS UL995 CODIC |
| Aircraft | A339/H-SDE1E2E3GHIJ1J3J4J5RWXYZ/LB2D1G1 |
Departure
| Time | 2026-05-05 16:19 |
|---|---|
| Airport | Stockholm-Arlanda Airport (ESSA) |
Arrival
| Time | 2026-05-05 19:52 |
|---|---|
| Airport | Rhodes International Airport "Diagoras" (LGRP) |
| Time | Latitude | Longitude | Altitude | Speed | Heading |
|---|---|---|---|---|---|
| 2026-05-05 14:42 | 59.65469 | 17.93717 | 144 ft | 0 kts | 248° |
| 2026-05-05 16:03 | 59.65469 | 17.93718 | 144 ft | 0 kts | 248° |
| 2026-05-05 16:03 | 59.65474 | 17.93741 | 144 ft | 3 kts | 248° |
| 2026-05-05 16:03 | 59.65481 | 17.93778 | 144 ft | 3 kts | 248° |
| 2026-05-05 16:03 | 59.65489 | 17.93813 | 144 ft | 2 kts | 248° |
| 2026-05-05 16:04 | 59.65495 | 17.93841 | 144 ft | 3 kts | 264° |
| 2026-05-05 16:04 | 59.65498 | 17.93869 | 144 ft | 3 kts | 300° |
| 2026-05-05 16:04 | 59.65491 | 17.93896 | 144 ft | 3 kts | 330° |
| 2026-05-05 16:04 | 59.65473 | 17.93914 | 144 ft | 3 kts | 342° |
| 2026-05-05 16:05 | 59.65461 | 17.93922 | 144 ft | 1 kts | 345° |
| 2026-05-05 16:05 | 59.65458 | 17.93924 | 144 ft | 0 kts | 345° |
| 2026-05-05 16:07 | 59.65461 | 17.93922 | 144 ft | 3 kts | 345° |
| 2026-05-05 16:07 | 59.65493 | 17.93904 | 144 ft | 6 kts | 344° |
| 2026-05-05 16:08 | 59.65538 | 17.93878 | 144 ft | 9 kts | 343° |
| 2026-05-05 16:08 | 59.65591 | 17.93777 | 144 ft | 17 kts | 290° |
| 2026-05-05 16:08 | 59.65572 | 17.93605 | 144 ft | 15 kts | 254° |
| 2026-05-05 16:08 | 59.65543 | 17.93399 | 144 ft | 16 kts | 255° |
| 2026-05-05 16:09 | 59.65516 | 17.93194 | 144 ft | 15 kts | 255° |
| 2026-05-05 16:09 | 59.65488 | 17.92993 | 144 ft | 16 kts | 255° |
| 2026-05-05 16:09 | 59.65449 | 17.92783 | 144 ft | 16 kts | 245° |
| 2026-05-05 16:09 | 59.65387 | 17.92599 | 144 ft | 16 kts | 230° |
| 2026-05-05 16:10 | 59.65291 | 17.92451 | 144 ft | 19 kts | 210° |
| 2026-05-05 16:10 | 59.65167 | 17.92373 | 144 ft | 19 kts | 189° |
| 2026-05-05 16:10 | 59.65037 | 17.92326 | 144 ft | 19 kts | 191° |
| 2026-05-05 16:10 | 59.64904 | 17.92275 | 144 ft | 19 kts | 191° |
| 2026-05-05 16:11 | 59.64770 | 17.92226 | 144 ft | 20 kts | 190° |
| 2026-05-05 16:11 | 59.64385 | 17.92088 | 144 ft | 17 kts | 191° |
| 2026-05-05 16:12 | 59.64324 | 17.91948 | 144 ft | 14 kts | 229° |
| 2026-05-05 16:12 | 59.64099 | 17.91818 | 144 ft | 18 kts | 190° |
| 2026-05-05 16:13 | 59.63902 | 17.91748 | 144 ft | 0 kts | 191° |
| 2026-05-05 16:14 | 59.63892 | 17.91744 | 144 ft | 4 kts | 192° |
| 2026-05-05 16:15 | 59.63788 | 17.91617 | 144 ft | 8 kts | 219° |
| 2026-05-05 16:15 | 59.63778 | 17.91600 | 144 ft | 0 kts | 221° |
| 2026-05-05 16:16 | 59.63765 | 17.91578 | 145 ft | 6 kts | 221° |
| 2026-05-05 16:17 | 59.63739 | 17.91395 | 151 ft | 6 kts | 283° |
| 2026-05-05 16:17 | 59.63768 | 17.91340 | 152 ft | 7 kts | 328° |
| 2026-05-05 16:18 | 59.63798 | 17.91344 | 151 ft | 0 kts | 5° |
| 2026-05-05 16:18 | 59.63862 | 17.91360 | 150 ft | 40 kts | 8° |
| 2026-05-05 16:18 | 59.65492 | 17.91969 | 224 ft | 180 kts | 8° |
| 2026-05-05 16:19 | 59.66784 | 17.92480 | 836 ft | 197 kts | 7° |
| 2026-05-05 16:19 | 59.68170 | 17.93045 | 1678 ft | 207 kts | 8° |
| 2026-05-05 16:19 | 59.71009 | 17.94562 | 3451 ft | 215 kts | 11° |
| 2026-05-05 16:20 | 59.73940 | 17.95731 | 4826 ft | 217 kts | 1° |
| 2026-05-05 16:20 | 59.76926 | 17.96385 | 4999 ft | 218 kts | 4° |
| 2026-05-05 16:21 | 59.79927 | 17.97432 | 4999 ft | 218 kts | 7° |
| 2026-05-05 16:22 | 59.82487 | 18.04404 | 5004 ft | 235 kts | 97° |
| 2026-05-05 16:22 | 59.80684 | 18.09420 | 5152 ft | 234 kts | 155° |
| 2026-05-05 16:23 | 59.77466 | 18.12401 | 5714 ft | 274 kts | 157° |
| 2026-05-05 16:23 | 59.75869 | 18.14555 | 6317 ft | 282 kts | 137° |
| 2026-05-05 16:23 | 59.73521 | 18.20859 | 7624 ft | 286 kts | 144° |
| 2026-05-05 16:24 | 59.71827 | 18.22753 | 8315 ft | 283 kts | 161° |
| 2026-05-05 16:24 | 59.69967 | 18.24096 | 8979 ft | 285 kts | 165° |
| 2026-05-05 16:24 | 59.66196 | 18.26803 | 10177 ft | 299 kts | 162° |
| 2026-05-05 16:25 | 59.64207 | 18.28432 | 10357 ft | 319 kts | 159° |
| 2026-05-05 16:25 | 59.59959 | 18.32200 | 11041 ft | 343 kts | 160° |
| 2026-05-05 16:25 | 59.57768 | 18.34157 | 11639 ft | 347 kts | 160° |
| 2026-05-05 16:26 | 59.53308 | 18.38123 | 12776 ft | 355 kts | 162° |
| 2026-05-05 16:26 | 59.48759 | 18.42090 | 13897 ft | 363 kts | 163° |
| 2026-05-05 16:27 | 59.46444 | 18.44113 | 14433 ft | 365 kts | 164° |
| 2026-05-05 16:27 | 59.44109 | 18.46153 | 14967 ft | 367 kts | 164° |
| 2026-05-05 16:27 | 59.41791 | 18.48175 | 15494 ft | 369 kts | 165° |
| 2026-05-05 16:27 | 59.39429 | 18.50231 | 16011 ft | 372 kts | 165° |
| 2026-05-05 16:28 | 59.37045 | 18.52301 | 16520 ft | 375 kts | 165° |
| 2026-05-05 16:28 | 59.34645 | 18.54381 | 17060 ft | 378 kts | 165° |
| 2026-05-05 16:28 | 59.32221 | 18.56478 | 17570 ft | 381 kts | 166° |
| 2026-05-05 16:28 | 59.29786 | 18.58582 | 18081 ft | 384 kts | 166° |
| 2026-05-05 16:29 | 59.27307 | 18.60471 | 18529 ft | 378 kts | 173° |
| 2026-05-05 16:29 | 59.24793 | 18.61402 | 18971 ft | 367 kts | 184° |
| 2026-05-05 16:29 | 59.22273 | 18.61385 | 19457 ft | 358 kts | 194° |
| 2026-05-05 16:29 | 59.19776 | 18.60919 | 19902 ft | 361 kts | 194° |
| 2026-05-05 16:30 | 59.17256 | 18.60473 | 20386 ft | 363 kts | 194° |
| 2026-05-05 16:30 | 59.14719 | 18.60051 | 20857 ft | 366 kts | 194° |
| 2026-05-05 16:30 | 59.12198 | 18.59647 | 21324 ft | 369 kts | 193° |
| 2026-05-05 16:30 | 59.09624 | 18.59242 | 21801 ft | 372 kts | 193° |
| 2026-05-05 16:31 | 59.07034 | 18.58837 | 22286 ft | 374 kts | 193° |
| 2026-05-05 16:31 | 59.04431 | 18.58429 | 22755 ft | 377 kts | 193° |
| 2026-05-05 16:31 | 59.01804 | 18.58020 | 23232 ft | 380 kts | 193° |
| 2026-05-05 16:31 | 58.99155 | 18.57606 | 23655 ft | 383 kts | 193° |
| 2026-05-05 16:32 | 58.96489 | 18.57190 | 24039 ft | 385 kts | 193° |
| 2026-05-05 16:32 | 58.93814 | 18.56694 | 24428 ft | 385 kts | 196° |
| 2026-05-05 16:32 | 58.91195 | 18.55671 | 24814 ft | 381 kts | 202° |
| 2026-05-05 16:32 | 58.88688 | 18.54174 | 25184 ft | 381 kts | 205° |
| 2026-05-05 16:33 | 58.86153 | 18.52598 | 25561 ft | 384 kts | 205° |
| 2026-05-05 16:33 | 58.83592 | 18.51033 | 25926 ft | 388 kts | 205° |
| 2026-05-05 16:33 | 58.81008 | 18.49464 | 26306 ft | 390 kts | 205° |
| 2026-05-05 16:33 | 58.78399 | 18.47886 | 26677 ft | 393 kts | 205° |
| 2026-05-05 16:34 | 58.75769 | 18.46303 | 27044 ft | 396 kts | 205° |
| 2026-05-05 16:34 | 58.73121 | 18.44713 | 27388 ft | 400 kts | 205° |
| 2026-05-05 16:34 | 58.70495 | 18.43141 | 27735 ft | 402 kts | 204° |
| 2026-05-05 16:34 | 58.67814 | 18.41539 | 28092 ft | 405 kts | 204° |
| 2026-05-05 16:35 | 58.65108 | 18.39925 | 28434 ft | 408 kts | 204° |
| 2026-05-05 16:35 | 58.62383 | 18.38301 | 28747 ft | 411 kts | 204° |
| 2026-05-05 16:35 | 58.59640 | 18.36670 | 29088 ft | 413 kts | 204° |
| 2026-05-05 16:35 | 58.56885 | 18.35034 | 29406 ft | 416 kts | 204° |
| 2026-05-05 16:36 | 58.54101 | 18.33384 | 29729 ft | 419 kts | 204° |
| 2026-05-05 16:36 | 58.51334 | 18.31746 | 30017 ft | 422 kts | 204° |
| 2026-05-05 16:36 | 58.48512 | 18.30079 | 30330 ft | 424 kts | 204° |
| 2026-05-05 16:36 | 58.45681 | 18.28410 | 30652 ft | 426 kts | 204° |
| 2026-05-05 16:37 | 58.42831 | 18.26733 | 30959 ft | 428 kts | 204° |
| 2026-05-05 16:37 | 58.39957 | 18.25095 | 31209 ft | 432 kts | 203° |
| 2026-05-05 16:37 | 58.37109 | 18.23453 | 31513 ft | 433 kts | 204° |
| 2026-05-05 16:37 | 58.34219 | 18.21741 | 31813 ft | 435 kts | 204° |
| 2026-05-05 16:38 | 58.31316 | 18.20019 | 32105 ft | 437 kts | 204° |
| 2026-05-05 16:38 | 58.28391 | 18.18292 | 32347 ft | 440 kts | 204° |
| 2026-05-05 16:38 | 58.25455 | 18.16571 | 32601 ft | 442 kts | 204° |
| 2026-05-05 16:38 | 58.22533 | 18.14868 | 32820 ft | 444 kts | 203° |
| 2026-05-05 16:39 | 58.19570 | 18.13146 | 33006 ft | 445 kts | 203° |
| 2026-05-05 16:39 | 58.16591 | 18.11419 | 33173 ft | 447 kts | 203° |
| 2026-05-05 16:39 | 58.13606 | 18.09692 | 33343 ft | 448 kts | 203° |
| 2026-05-05 16:39 | 58.10655 | 18.07989 | 33532 ft | 448 kts | 203° |
| 2026-05-05 16:40 | 58.07660 | 18.06263 | 33746 ft | 448 kts | 203° |
| 2026-05-05 16:40 | 58.04667 | 18.04541 | 33933 ft | 448 kts | 203° |
| 2026-05-05 16:40 | 58.01710 | 18.02841 | 34092 ft | 448 kts | 203° |
| 2026-05-05 16:40 | 57.98712 | 18.01122 | 34260 ft | 449 kts | 203° |
| 2026-05-05 16:41 | 57.95718 | 17.99407 | 34418 ft | 449 kts | 203° |
| 2026-05-05 16:41 | 57.92721 | 17.97693 | 34575 ft | 449 kts | 203° |
| 2026-05-05 16:41 | 57.89721 | 17.95981 | 34728 ft | 449 kts | 202° |
| 2026-05-05 16:41 | 57.86765 | 17.94297 | 34890 ft | 449 kts | 202° |
| 2026-05-05 16:42 | 57.83770 | 17.92594 | 35054 ft | 449 kts | 202° |
| 2026-05-05 16:42 | 57.80770 | 17.90890 | 35212 ft | 450 kts | 202° |
| 2026-05-05 16:42 | 57.77773 | 17.89191 | 35359 ft | 450 kts | 202° |
| 2026-05-05 16:42 | 57.74768 | 17.87491 | 35520 ft | 450 kts | 202° |
| 2026-05-05 16:43 | 57.71768 | 17.85802 | 35665 ft | 450 kts | 202° |
| 2026-05-05 16:43 | 57.68762 | 17.84127 | 35812 ft | 450 kts | 202° |
| 2026-05-05 16:43 | 57.65761 | 17.82431 | 35975 ft | 450 kts | 202° |
| 2026-05-05 16:43 | 57.62797 | 17.80755 | 36121 ft | 450 kts | 202° |
| 2026-05-05 16:44 | 57.59798 | 17.79064 | 36281 ft | 450 kts | 202° |
| 2026-05-05 16:44 | 57.56800 | 17.77381 | 36420 ft | 450 kts | 202° |
| 2026-05-05 16:44 | 57.53796 | 17.75700 | 36590 ft | 450 kts | 202° |
| 2026-05-05 16:44 | 57.50794 | 17.74025 | 36733 ft | 450 kts | 202° |
| 2026-05-05 16:45 | 57.47788 | 17.72369 | 36869 ft | 451 kts | 200° |
| 2026-05-05 16:45 | 57.44707 | 17.71073 | 36886 ft | 455 kts | 195° |
| 2026-05-05 16:45 | 57.38486 | 17.69150 | 36889 ft | 454 kts | 195° |
| 2026-05-05 16:46 | 57.32238 | 17.67187 | 36889 ft | 454 kts | 195° |
| 2026-05-05 16:46 | 57.26045 | 17.65227 | 36891 ft | 454 kts | 195° |
| 2026-05-05 16:47 | 57.19811 | 17.63259 | 36890 ft | 454 kts | 195° |
| 2026-05-05 16:47 | 57.13579 | 17.61298 | 36893 ft | 453 kts | 195° |
| 2026-05-05 16:48 | 57.07377 | 17.59354 | 36888 ft | 453 kts | 195° |
| 2026-05-05 16:48 | 57.01132 | 17.57404 | 36891 ft | 453 kts | 195° |
| 2026-05-05 16:49 | 56.94939 | 17.55477 | 36891 ft | 453 kts | 195° |
| 2026-05-05 16:49 | 56.88707 | 17.53544 | 36891 ft | 453 kts | 195° |
| 2026-05-05 16:50 | 56.82527 | 17.51642 | 36884 ft | 453 kts | 195° |
| 2026-05-05 16:50 | 56.76300 | 17.49719 | 36890 ft | 453 kts | 195° |
| 2026-05-05 16:51 | 56.70085 | 17.47807 | 36890 ft | 452 kts | 195° |
| 2026-05-05 16:51 | 56.63909 | 17.45916 | 36891 ft | 452 kts | 195° |
| 2026-05-05 16:52 | 56.57689 | 17.44018 | 36880 ft | 452 kts | 195° |
| 2026-05-05 16:52 | 56.51508 | 17.42139 | 36888 ft | 452 kts | 195° |
| 2026-05-05 16:53 | 56.45296 | 17.40256 | 36882 ft | 452 kts | 195° |
| 2026-05-05 16:53 | 56.39084 | 17.38380 | 36885 ft | 451 kts | 195° |
| 2026-05-05 16:54 | 56.32918 | 17.36524 | 36886 ft | 451 kts | 195° |
| 2026-05-05 16:54 | 56.26713 | 17.34663 | 36890 ft | 451 kts | 195° |
| 2026-05-05 16:55 | 56.20511 | 17.32808 | 36891 ft | 451 kts | 195° |
| 2026-05-05 16:55 | 56.14354 | 17.30973 | 36888 ft | 451 kts | 195° |
| 2026-05-05 16:56 | 56.08165 | 17.29134 | 36893 ft | 450 kts | 195° |
| 2026-05-05 16:56 | 56.01967 | 17.27299 | 36895 ft | 450 kts | 195° |
| 2026-05-05 16:57 | 55.95819 | 17.25484 | 36894 ft | 450 kts | 195° |
| 2026-05-05 16:57 | 55.89630 | 17.23663 | 36899 ft | 450 kts | 195° |
| 2026-05-05 16:58 | 55.83444 | 17.21849 | 36904 ft | 449 kts | 195° |
| 2026-05-05 16:58 | 55.77290 | 17.20049 | 36907 ft | 449 kts | 195° |
| 2026-05-05 16:59 | 55.71119 | 17.18251 | 36903 ft | 449 kts | 195° |
| 2026-05-05 16:59 | 55.64864 | 17.17613 | 36908 ft | 460 kts | 181° |
| 2026-05-05 17:00 | 55.58586 | 17.20307 | 36897 ft | 475 kts | 163° |
| 2026-05-05 17:00 | 55.52555 | 17.25263 | 36899 ft | 477 kts | 161° |
| 2026-05-05 17:01 | 55.46514 | 17.30172 | 36903 ft | 477 kts | 162° |
| 2026-05-05 17:01 | 55.40475 | 17.35018 | 36908 ft | 476 kts | 162° |
| 2026-05-05 17:02 | 55.34478 | 17.39813 | 36904 ft | 476 kts | 162° |
| 2026-05-05 17:02 | 55.28443 | 17.44622 | 36913 ft | 475 kts | 162° |
| 2026-05-05 17:03 | 55.23422 | 17.48610 | 36915 ft | 475 kts | 162° |
| 2026-05-05 17:03 | 55.17417 | 17.53332 | 36916 ft | 473 kts | 162° |
| 2026-05-05 17:04 | 55.11407 | 17.57923 | 36915 ft | 473 kts | 163° |
| 2026-05-05 17:04 | 55.05378 | 17.62520 | 36915 ft | 472 kts | 162° |
| 2026-05-05 17:05 | 54.99346 | 17.67118 | 36913 ft | 472 kts | 162° |
| 2026-05-05 17:05 | 54.93332 | 17.71758 | 36912 ft | 472 kts | 162° |
| 2026-05-05 17:06 | 54.87397 | 17.76470 | 36915 ft | 472 kts | 161° |
| 2026-05-05 17:06 | 54.81417 | 17.81187 | 36912 ft | 471 kts | 162° |
| 2026-05-05 17:07 | 54.75426 | 17.85871 | 36914 ft | 471 kts | 162° |
| 2026-05-05 17:07 | 54.69467 | 17.90494 | 36911 ft | 471 kts | 162° |
| 2026-05-05 17:08 | 54.63465 | 17.95137 | 36906 ft | 471 kts | 162° |
| 2026-05-05 17:08 | 54.57505 | 17.99736 | 36905 ft | 472 kts | 162° |
| 2026-05-05 17:09 | 54.51496 | 18.04358 | 36907 ft | 473 kts | 162° |
| 2026-05-05 17:09 | 54.45469 | 18.08983 | 36906 ft | 473 kts | 162° |
| 2026-05-05 17:10 | 54.39467 | 18.13570 | 36908 ft | 474 kts | 162° |
| 2026-05-05 17:10 | 54.33420 | 18.18176 | 36910 ft | 474 kts | 162° |
| 2026-05-05 17:11 | 54.27403 | 18.22740 | 36902 ft | 475 kts | 162° |
| 2026-05-05 17:11 | 54.21365 | 18.27259 | 36891 ft | 475 kts | 162° |
| 2026-05-05 17:12 | 54.15291 | 18.31789 | 36899 ft | 475 kts | 162° |
| 2026-05-05 17:12 | 54.09258 | 18.36279 | 36905 ft | 475 kts | 162° |
| 2026-05-05 17:13 | 54.03181 | 18.40791 | 36898 ft | 475 kts | 162° |
| 2026-05-05 17:13 | 53.97149 | 18.45254 | 36888 ft | 475 kts | 162° |
| 2026-05-05 17:14 | 53.91069 | 18.49737 | 36895 ft | 475 kts | 162° |
| 2026-05-05 17:14 | 53.85002 | 18.54197 | 36887 ft | 475 kts | 162° |
| 2026-05-05 17:15 | 53.78956 | 18.58628 | 36885 ft | 475 kts | 162° |
| 2026-05-05 17:15 | 53.72828 | 18.62810 | 36879 ft | 471 kts | 167° |
| 2026-05-05 17:16 | 53.66646 | 18.66309 | 36879 ft | 471 kts | 166° |
| 2026-05-05 17:16 | 53.60407 | 18.69857 | 36871 ft | 471 kts | 166° |
| 2026-05-05 17:17 | 53.54221 | 18.73378 | 36870 ft | 471 kts | 166° |
| 2026-05-05 17:17 | 53.47994 | 18.76912 | 36865 ft | 471 kts | 166° |
| 2026-05-05 17:18 | 53.41797 | 18.80418 | 36859 ft | 472 kts | 166° |
| 2026-05-05 17:18 | 53.35569 | 18.83931 | 36854 ft | 472 kts | 166° |
| 2026-05-05 17:19 | 53.29337 | 18.87435 | 36851 ft | 472 kts | 166° |
| 2026-05-05 17:19 | 53.23138 | 18.90910 | 36850 ft | 472 kts | 166° |
| 2026-05-05 17:20 | 53.16898 | 18.94397 | 36858 ft | 472 kts | 166° |
| 2026-05-05 17:20 | 53.10690 | 18.97855 | 36857 ft | 472 kts | 166° |
| 2026-05-05 17:21 | 53.04462 | 19.01314 | 36842 ft | 472 kts | 166° |
| 2026-05-05 17:22 | 52.95122 | 19.06482 | 36838 ft | 472 kts | 166° |
| 2026-05-05 17:22 | 52.88868 | 19.09929 | 36829 ft | 472 kts | 166° |
| 2026-05-05 17:23 | 52.82664 | 19.13338 | 36833 ft | 472 kts | 166° |
| 2026-05-05 17:23 | 52.76449 | 19.16743 | 36832 ft | 472 kts | 166° |
| 2026-05-05 17:24 | 52.70207 | 19.20152 | 36827 ft | 472 kts | 166° |
| 2026-05-05 17:24 | 52.63961 | 19.23554 | 36821 ft | 472 kts | 166° |
| 2026-05-05 17:25 | 52.57727 | 19.26939 | 36820 ft | 472 kts | 166° |
| 2026-05-05 17:25 | 52.51507 | 19.30247 | 36809 ft | 471 kts | 166° |
| 2026-05-05 17:26 | 52.45230 | 19.33481 | 36808 ft | 472 kts | 166° |
| 2026-05-05 17:26 | 52.38988 | 19.36702 | 36800 ft | 472 kts | 166° |
| 2026-05-05 17:27 | 52.32749 | 19.39922 | 36796 ft | 472 kts | 166° |
| 2026-05-05 17:27 | 52.26467 | 19.43158 | 36787 ft | 472 kts | 166° |
| 2026-05-05 17:28 | 52.20187 | 19.46382 | 36782 ft | 472 kts | 166° |
| 2026-05-05 17:28 | 52.13911 | 19.49594 | 36783 ft | 472 kts | 166° |
| 2026-05-05 17:29 | 52.07687 | 19.52773 | 36789 ft | 467 kts | 166° |
| 2026-05-05 17:29 | 52.01478 | 19.55932 | 36763 ft | 468 kts | 166° |
| 2026-05-05 17:30 | 51.95261 | 19.59085 | 36757 ft | 468 kts | 166° |
| 2026-05-05 17:30 | 51.89083 | 19.62211 | 36771 ft | 468 kts | 166° |
| 2026-05-05 17:31 | 51.82849 | 19.65356 | 36773 ft | 468 kts | 166° |
| 2026-05-05 17:31 | 51.76658 | 19.68470 | 36766 ft | 467 kts | 166° |
| 2026-05-05 17:32 | 51.70425 | 19.71596 | 36771 ft | 467 kts | 166° |
| 2026-05-05 17:32 | 51.64234 | 19.74692 | 36771 ft | 468 kts | 166° |
| 2026-05-05 17:33 | 51.58003 | 19.77800 | 36770 ft | 468 kts | 166° |
| 2026-05-05 17:33 | 51.51811 | 19.80879 | 36773 ft | 468 kts | 166° |
| 2026-05-05 17:34 | 51.45584 | 19.83966 | 36774 ft | 468 kts | 166° |
| 2026-05-05 17:34 | 51.39351 | 19.87048 | 36778 ft | 468 kts | 166° |
| 2026-05-05 17:35 | 51.33169 | 19.90152 | 36777 ft | 468 kts | 164° |
| 2026-05-05 17:35 | 51.27007 | 19.93633 | 36782 ft | 468 kts | 163° |
| 2026-05-05 17:36 | 51.20901 | 19.97086 | 36791 ft | 468 kts | 163° |
| 2026-05-05 17:36 | 51.14740 | 20.00512 | 36791 ft | 468 kts | 163° |
| 2026-05-05 17:37 | 51.08576 | 20.03915 | 36796 ft | 467 kts | 163° |
| 2026-05-05 17:37 | 51.02456 | 20.07285 | 36799 ft | 467 kts | 163° |
| 2026-05-05 17:38 | 50.96305 | 20.10663 | 36803 ft | 467 kts | 163° |
| 2026-05-05 17:38 | 50.90162 | 20.14027 | 36800 ft | 467 kts | 163° |
| 2026-05-05 17:39 | 50.84054 | 20.17363 | 36809 ft | 466 kts | 163° |
| 2026-05-05 17:39 | 50.77907 | 20.20710 | 36814 ft | 466 kts | 163° |
| 2026-05-05 17:40 | 50.71763 | 20.24047 | 36812 ft | 466 kts | 163° |
| 2026-05-05 17:40 | 50.65652 | 20.27356 | 36816 ft | 466 kts | 163° |
| 2026-05-05 17:41 | 50.59509 | 20.30674 | 36819 ft | 466 kts | 163° |
| 2026-05-05 17:41 | 50.53365 | 20.33984 | 36820 ft | 466 kts | 163° |
| 2026-05-05 17:42 | 50.47249 | 20.37269 | 36826 ft | 466 kts | 163° |
| 2026-05-05 17:42 | 50.41091 | 20.40568 | 36829 ft | 467 kts | 163° |
| 2026-05-05 17:43 | 50.34965 | 20.43839 | 36831 ft | 467 kts | 163° |
| 2026-05-05 17:43 | 50.28810 | 20.47119 | 36840 ft | 467 kts | 163° |
| 2026-05-05 17:44 | 50.22644 | 20.50394 | 36839 ft | 467 kts | 163° |
| 2026-05-05 17:44 | 50.16483 | 20.53659 | 36844 ft | 467 kts | 163° |
| 2026-05-05 17:45 | 50.10326 | 20.56913 | 36848 ft | 467 kts | 163° |
| 2026-05-05 17:45 | 50.04246 | 20.60361 | 36850 ft | 468 kts | 161° |
| 2026-05-05 17:46 | 49.98154 | 20.63983 | 36854 ft | 468 kts | 161° |
| 2026-05-05 17:46 | 49.92091 | 20.67531 | 36857 ft | 467 kts | 161° |
| 2026-05-05 17:47 | 49.85985 | 20.71072 | 36861 ft | 467 kts | 161° |
| 2026-05-05 17:47 | 49.79883 | 20.74597 | 36866 ft | 467 kts | 161° |
| 2026-05-05 17:48 | 49.73818 | 20.78093 | 36873 ft | 468 kts | 161° |
| 2026-05-05 17:48 | 49.67708 | 20.81607 | 36879 ft | 467 kts | 161° |
| 2026-05-05 17:49 | 49.61600 | 20.85109 | 36880 ft | 468 kts | 161° |
| 2026-05-05 17:49 | 49.55525 | 20.88583 | 36890 ft | 468 kts | 161° |
| 2026-05-05 17:50 | 49.49409 | 20.92071 | 36892 ft | 468 kts | 161° |
| 2026-05-05 17:50 | 49.44322 | 20.94966 | 36902 ft | 468 kts | 162° |
| 2026-05-05 17:51 | 49.37214 | 20.98999 | 36903 ft | 468 kts | 162° |
| 2026-05-05 17:51 | 49.32096 | 21.01724 | 36905 ft | 467 kts | 166° |
| 2026-05-05 17:52 | 49.25827 | 21.04348 | 36901 ft | 466 kts | 167° |
| 2026-05-05 17:52 | 49.19566 | 21.06985 | 36904 ft | 467 kts | 167° |
| 2026-05-05 17:53 | 49.13304 | 21.09651 | 36902 ft | 467 kts | 166° |
| 2026-05-05 17:53 | 49.07065 | 21.12267 | 36906 ft | 467 kts | 167° |
| 2026-05-05 17:54 | 49.00787 | 21.14879 | 36905 ft | 467 kts | 166° |
| 2026-05-05 17:54 | 48.94509 | 21.17499 | 36895 ft | 467 kts | 166° |
| 2026-05-05 17:55 | 48.88261 | 21.20107 | 36878 ft | 468 kts | 166° |
| 2026-05-05 17:55 | 48.81967 | 21.22728 | 36879 ft | 468 kts | 166° |
| 2026-05-05 17:56 | 48.75718 | 21.25319 | 36891 ft | 468 kts | 166° |
| 2026-05-05 17:56 | 48.69426 | 21.27925 | 36891 ft | 468 kts | 166° |
| 2026-05-05 17:57 | 48.63139 | 21.30521 | 36881 ft | 468 kts | 166° |
| 2026-05-05 17:57 | 48.56886 | 21.33096 | 36882 ft | 468 kts | 166° |
| 2026-05-05 17:58 | 48.50573 | 21.35690 | 36890 ft | 469 kts | 166° |
| 2026-05-05 17:58 | 48.44270 | 21.38272 | 36895 ft | 469 kts | 166° |
| 2026-05-05 17:59 | 48.37990 | 21.40838 | 36899 ft | 469 kts | 166° |
| 2026-05-05 17:59 | 48.31676 | 21.43414 | 36903 ft | 469 kts | 166° |
| 2026-05-05 18:00 | 48.25410 | 21.45988 | 36901 ft | 469 kts | 166° |
| 2026-05-05 18:00 | 48.19089 | 21.48541 | 36903 ft | 470 kts | 166° |
| 2026-05-05 18:01 | 48.12769 | 21.51086 | 36904 ft | 470 kts | 166° |
| 2026-05-05 18:01 | 48.06471 | 21.53665 | 37131 ft | 472 kts | 165° |
| 2026-05-05 18:01 | 48.03302 | 21.54970 | 37262 ft | 472 kts | 166° |
| 2026-05-05 18:02 | 48.00125 | 21.56231 | 37433 ft | 472 kts | 166° |
| 2026-05-05 18:02 | 47.96940 | 21.57478 | 37584 ft | 472 kts | 166° |
| 2026-05-05 18:02 | 47.93758 | 21.58732 | 37734 ft | 472 kts | 166° |
| 2026-05-05 18:02 | 47.90620 | 21.59977 | 37887 ft | 472 kts | 166° |
| 2026-05-05 18:03 | 47.87450 | 21.61243 | 38012 ft | 472 kts | 165° |
| 2026-05-05 18:03 | 47.84270 | 21.62564 | 38135 ft | 473 kts | 166° |
| 2026-05-05 18:03 | 47.81092 | 21.63838 | 38284 ft | 473 kts | 166° |
| 2026-05-05 18:03 | 47.77904 | 21.65089 | 38412 ft | 473 kts | 166° |
| 2026-05-05 18:04 | 47.74713 | 21.66339 | 38569 ft | 473 kts | 166° |
| 2026-05-05 18:04 | 47.71531 | 21.67592 | 38683 ft | 473 kts | 166° |
| 2026-05-05 18:04 | 47.68395 | 21.68833 | 38795 ft | 473 kts | 166° |
| 2026-05-05 18:04 | 47.65198 | 21.70100 | 38902 ft | 473 kts | 166° |
| 2026-05-05 18:05 | 47.62004 | 21.71366 | 38907 ft | 473 kts | 166° |
| 2026-05-05 18:05 | 47.55689 | 21.73866 | 38913 ft | 472 kts | 166° |
| 2026-05-05 18:06 | 47.49318 | 21.76381 | 38911 ft | 473 kts | 166° |
| 2026-05-05 18:06 | 47.42950 | 21.78889 | 38913 ft | 473 kts | 166° |
| 2026-05-05 18:07 | 47.36624 | 21.81373 | 38910 ft | 472 kts | 166° |
| 2026-05-05 18:07 | 47.30242 | 21.83873 | 38907 ft | 472 kts | 166° |
| 2026-05-05 18:08 | 47.23917 | 21.86348 | 38923 ft | 472 kts | 166° |
| 2026-05-05 18:08 | 47.17637 | 21.89051 | 38925 ft | 472 kts | 163° |
| 2026-05-05 18:09 | 47.11336 | 21.91843 | 38933 ft | 472 kts | 164° |
| 2026-05-05 18:09 | 47.05010 | 21.94575 | 38932 ft | 473 kts | 164° |
| 2026-05-05 18:10 | 46.98731 | 21.97271 | 38931 ft | 473 kts | 164° |
| 2026-05-05 18:10 | 46.92401 | 21.99986 | 38931 ft | 473 kts | 164° |
| 2026-05-05 18:11 | 46.86060 | 22.02705 | 38931 ft | 473 kts | 164° |
| 2026-05-05 18:11 | 46.79784 | 22.05439 | 38932 ft | 473 kts | 164° |
| 2026-05-05 18:12 | 46.73445 | 22.08121 | 38932 ft | 474 kts | 165° |
| 2026-05-05 18:12 | 46.67101 | 22.10777 | 38936 ft | 474 kts | 165° |
| 2026-05-05 18:13 | 46.60743 | 22.13464 | 38942 ft | 475 kts | 164° |
| 2026-05-05 18:13 | 46.54482 | 22.16142 | 38945 ft | 475 kts | 163° |
| 2026-05-05 18:14 | 46.48133 | 22.18820 | 38951 ft | 475 kts | 165° |
| 2026-05-05 18:14 | 46.41779 | 22.21459 | 38950 ft | 476 kts | 165° |
| 2026-05-05 18:15 | 46.35402 | 22.24126 | 38952 ft | 476 kts | 165° |
| 2026-05-05 18:15 | 46.29027 | 22.26802 | 38957 ft | 476 kts | 164° |
| 2026-05-05 18:16 | 46.22648 | 22.29474 | 38960 ft | 477 kts | 165° |
| 2026-05-05 18:16 | 46.16322 | 22.32100 | 38957 ft | 477 kts | 165° |
| 2026-05-05 18:17 | 46.09930 | 22.34755 | 38962 ft | 477 kts | 165° |
| 2026-05-05 18:17 | 46.03574 | 22.37391 | 38959 ft | 477 kts | 165° |
| 2026-05-05 18:18 | 45.97178 | 22.40037 | 38961 ft | 478 kts | 165° |
| 2026-05-05 18:18 | 45.90815 | 22.42664 | 38965 ft | 478 kts | 165° |
| 2026-05-05 18:19 | 45.84397 | 22.45306 | 38965 ft | 478 kts | 165° |
| 2026-05-05 18:19 | 45.77981 | 22.47941 | 38975 ft | 479 kts | 165° |
| 2026-05-05 18:20 | 45.71605 | 22.50552 | 38983 ft | 479 kts | 165° |
| 2026-05-05 18:20 | 45.65186 | 22.53177 | 38982 ft | 479 kts | 165° |
| 2026-05-05 18:21 | 45.58768 | 22.55794 | 38987 ft | 480 kts | 165° |
| 2026-05-05 18:21 | 45.52331 | 22.58412 | 38997 ft | 480 kts | 165° |
| 2026-05-05 18:22 | 45.45942 | 22.61005 | 39000 ft | 480 kts | 165° |
| 2026-05-05 18:22 | 45.39490 | 22.63616 | 39010 ft | 481 kts | 165° |
| 2026-05-05 18:23 | 45.33079 | 22.66205 | 39009 ft | 481 kts | 165° |
| 2026-05-05 18:23 | 45.26626 | 22.68805 | 39016 ft | 481 kts | 165° |
| 2026-05-05 18:24 | 45.20168 | 22.71400 | 39012 ft | 481 kts | 165° |
| 2026-05-05 18:24 | 45.13738 | 22.73980 | 39003 ft | 482 kts | 165° |
| 2026-05-05 18:25 | 45.07295 | 22.76557 | 39009 ft | 482 kts | 165° |
| 2026-05-05 18:25 | 45.00819 | 22.79142 | 39006 ft | 482 kts | 165° |
| 2026-05-05 18:26 | 44.94384 | 22.81703 | 39001 ft | 483 kts | 165° |
| 2026-05-05 18:26 | 44.87896 | 22.84282 | 38989 ft | 483 kts | 165° |
| 2026-05-05 18:27 | 44.81450 | 22.86837 | 38990 ft | 483 kts | 165° |
| 2026-05-05 18:27 | 44.74965 | 22.89400 | 38979 ft | 484 kts | 165° |
| 2026-05-05 18:28 | 44.65259 | 22.93226 | 38981 ft | 484 kts | 165° |
| 2026-05-05 18:28 | 44.58757 | 22.95781 | 38993 ft | 484 kts | 165° |
| 2026-05-05 18:29 | 44.52243 | 22.98336 | 38984 ft | 485 kts | 165° |
| 2026-05-05 18:29 | 44.45771 | 23.00867 | 38974 ft | 485 kts | 165° |
| 2026-05-05 18:30 | 44.39280 | 23.03401 | 38977 ft | 485 kts | 165° |
| 2026-05-05 18:30 | 44.32763 | 23.05939 | 38988 ft | 485 kts | 165° |
| 2026-05-05 18:31 | 44.26247 | 23.08470 | 38992 ft | 486 kts | 165° |
| 2026-05-05 18:31 | 44.19705 | 23.11006 | 38978 ft | 486 kts | 165° |
| 2026-05-05 18:32 | 44.13206 | 23.13519 | 38971 ft | 486 kts | 165° |
| 2026-05-05 18:32 | 44.06711 | 23.16025 | 38973 ft | 486 kts | 165° |
| 2026-05-05 18:33 | 44.00167 | 23.18544 | 38985 ft | 487 kts | 165° |
| 2026-05-05 18:33 | 43.93625 | 23.21057 | 38990 ft | 487 kts | 165° |
| 2026-05-05 18:34 | 43.87117 | 23.23550 | 38975 ft | 488 kts | 165° |
| 2026-05-05 18:34 | 43.81664 | 23.25632 | 38990 ft | 488 kts | 166° |
| 2026-05-05 18:35 | 43.75084 | 23.28055 | 38977 ft | 488 kts | 166° |
| 2026-05-05 18:35 | 43.68541 | 23.30448 | 38978 ft | 488 kts | 166° |
| 2026-05-05 18:36 | 43.61970 | 23.32852 | 38995 ft | 489 kts | 166° |
| 2026-05-05 18:36 | 43.55377 | 23.35263 | 38996 ft | 489 kts | 166° |
| 2026-05-05 18:37 | 43.48814 | 23.37658 | 39000 ft | 489 kts | 166° |
| 2026-05-05 18:37 | 43.42209 | 23.40064 | 39002 ft | 490 kts | 166° |
| 2026-05-05 18:38 | 43.35644 | 23.42450 | 39008 ft | 490 kts | 166° |
| 2026-05-05 18:38 | 43.29030 | 23.44847 | 39011 ft | 491 kts | 166° |
| 2026-05-05 18:39 | 43.22411 | 23.47242 | 39020 ft | 491 kts | 166° |
| 2026-05-05 18:39 | 43.15832 | 23.49617 | 39025 ft | 491 kts | 166° |
| 2026-05-05 18:40 | 43.09209 | 23.52003 | 39030 ft | 491 kts | 166° |
| 2026-05-05 18:40 | 43.02609 | 23.54373 | 39026 ft | 492 kts | 166° |
| 2026-05-05 18:41 | 42.95967 | 23.56753 | 39037 ft | 492 kts | 166° |
| 2026-05-05 18:41 | 42.89362 | 23.59118 | 39043 ft | 493 kts | 166° |
| 2026-05-05 18:42 | 42.82720 | 23.61488 | 39045 ft | 493 kts | 166° |
| 2026-05-05 18:42 | 42.76081 | 23.63852 | 39044 ft | 493 kts | 166° |
| 2026-05-05 18:43 | 42.69469 | 23.66202 | 39043 ft | 493 kts | 166° |
| 2026-05-05 18:43 | 42.62812 | 23.68562 | 39043 ft | 493 kts | 166° |
| 2026-05-05 18:44 | 42.56200 | 23.70908 | 39044 ft | 494 kts | 166° |
| 2026-05-05 18:44 | 42.49579 | 23.73615 | 39043 ft | 494 kts | 163° |
| 2026-05-05 18:45 | 42.43024 | 23.76382 | 39039 ft | 495 kts | 164° |
| 2026-05-05 18:45 | 42.36459 | 23.79094 | 39038 ft | 495 kts | 164° |
| 2026-05-05 18:46 | 42.29856 | 23.81796 | 39037 ft | 495 kts | 164° |
| 2026-05-05 18:46 | 42.23234 | 23.84499 | 39040 ft | 496 kts | 164° |
| 2026-05-05 18:47 | 42.16654 | 23.87180 | 39042 ft | 496 kts | 164° |
| 2026-05-05 18:47 | 42.10030 | 23.89873 | 39051 ft | 496 kts | 164° |
| 2026-05-05 18:48 | 42.03446 | 23.92544 | 39053 ft | 496 kts | 164° |
| 2026-05-05 18:48 | 41.96809 | 23.95231 | 39047 ft | 496 kts | 164° |
| 2026-05-05 18:49 | 41.90217 | 23.97893 | 39048 ft | 496 kts | 165° |
| 2026-05-05 18:49 | 41.83598 | 24.00560 | 39052 ft | 496 kts | 165° |
| 2026-05-05 18:50 | 41.76965 | 24.03228 | 39054 ft | 496 kts | 165° |
| 2026-05-05 18:50 | 41.70384 | 24.05870 | 39051 ft | 496 kts | 165° |
| 2026-05-05 18:51 | 41.63753 | 24.08525 | 39047 ft | 497 kts | 165° |
| 2026-05-05 18:51 | 41.57109 | 24.11179 | 39046 ft | 497 kts | 165° |
| 2026-05-05 18:52 | 41.50602 | 24.14222 | 39042 ft | 499 kts | 159° |
| 2026-05-05 18:52 | 41.44126 | 24.17616 | 39042 ft | 499 kts | 160° |
| 2026-05-05 18:53 | 41.37683 | 24.20965 | 39041 ft | 500 kts | 160° |
| 2026-05-05 18:53 | 41.31177 | 24.24328 | 39045 ft | 501 kts | 160° |
| 2026-05-05 18:54 | 41.24666 | 24.27686 | 39040 ft | 501 kts | 160° |
| 2026-05-05 18:54 | 41.18185 | 24.31021 | 39035 ft | 502 kts | 160° |
| 2026-05-05 18:55 | 41.11657 | 24.34373 | 39040 ft | 502 kts | 160° |
| 2026-05-05 18:55 | 41.05115 | 24.37724 | 39045 ft | 503 kts | 160° |
| 2026-05-05 18:56 | 40.98609 | 24.41051 | 39048 ft | 504 kts | 160° |
| 2026-05-05 18:56 | 40.92034 | 24.44405 | 39048 ft | 504 kts | 160° |
| 2026-05-05 18:57 | 40.85505 | 24.47730 | 39047 ft | 505 kts | 160° |
| 2026-05-05 18:57 | 40.78960 | 24.51056 | 39046 ft | 506 kts | 160° |
| 2026-05-05 18:58 | 40.72363 | 24.54411 | 39042 ft | 506 kts | 160° |
| 2026-05-05 18:58 | 40.65800 | 24.57720 | 39038 ft | 507 kts | 160° |
| 2026-05-05 18:59 | 40.59196 | 24.61048 | 39046 ft | 507 kts | 160° |
| 2026-05-05 18:59 | 40.52658 | 24.64430 | 39034 ft | 508 kts | 159° |
| 2026-05-05 19:00 | 40.46046 | 24.67739 | 39038 ft | 508 kts | 160° |
| 2026-05-05 19:00 | 40.39436 | 24.70985 | 39046 ft | 508 kts | 160° |
| 2026-05-05 19:01 | 40.32821 | 24.74278 | 39050 ft | 508 kts | 160° |
| 2026-05-05 19:01 | 40.26210 | 24.77589 | 39046 ft | 508 kts | 160° |
| 2026-05-05 19:02 | 40.19595 | 24.80883 | 39052 ft | 508 kts | 160° |
| 2026-05-05 19:02 | 40.13016 | 24.84154 | 39051 ft | 507 kts | 160° |
| 2026-05-05 19:03 | 40.06419 | 24.87449 | 39047 ft | 507 kts | 160° |
| 2026-05-05 19:03 | 39.99843 | 24.90704 | 39052 ft | 507 kts | 160° |
| 2026-05-05 19:04 | 39.93230 | 24.93980 | 39053 ft | 507 kts | 160° |
| 2026-05-05 19:04 | 39.86660 | 24.97212 | 39051 ft | 507 kts | 160° |
| 2026-05-05 19:05 | 39.80050 | 25.00463 | 39051 ft | 506 kts | 160° |
| 2026-05-05 19:05 | 39.73487 | 25.03688 | 39049 ft | 506 kts | 160° |
| 2026-05-05 19:06 | 39.66890 | 25.06923 | 39049 ft | 506 kts | 160° |
| 2026-05-05 19:06 | 39.60294 | 25.10171 | 39050 ft | 506 kts | 160° |
| 2026-05-05 19:07 | 39.53897 | 25.13863 | 39049 ft | 506 kts | 155° |
| 2026-05-05 19:07 | 39.47515 | 25.17764 | 39047 ft | 506 kts | 155° |
| 2026-05-05 19:08 | 39.41121 | 25.21652 | 39053 ft | 506 kts | 156° |
| 2026-05-05 19:08 | 39.34772 | 25.25500 | 39058 ft | 506 kts | 155° |
| 2026-05-05 19:09 | 39.28390 | 25.29374 | 39056 ft | 507 kts | 156° |
| 2026-05-05 19:09 | 39.21987 | 25.33203 | 39057 ft | 507 kts | 156° |
| 2026-05-05 19:10 | 39.15611 | 25.37028 | 39058 ft | 507 kts | 156° |
| 2026-05-05 19:10 | 39.09211 | 25.40866 | 39063 ft | 507 kts | 156° |
| 2026-05-05 19:11 | 39.02804 | 25.44702 | 39061 ft | 507 kts | 156° |
| 2026-05-05 19:11 | 38.96431 | 25.48512 | 39059 ft | 507 kts | 155° |
| 2026-05-05 19:12 | 38.90057 | 25.52414 | 39055 ft | 506 kts | 156° |
| 2026-05-05 19:12 | 38.83655 | 25.56210 | 39055 ft | 506 kts | 156° |
| 2026-05-05 19:13 | 38.77228 | 25.59968 | 39058 ft | 507 kts | 157° |
| 2026-05-05 19:13 | 38.70835 | 25.63712 | 39058 ft | 507 kts | 157° |
| 2026-05-05 19:14 | 38.64415 | 25.67500 | 39065 ft | 508 kts | 157° |
| 2026-05-05 19:14 | 38.58024 | 25.71274 | 39063 ft | 508 kts | 157° |
| 2026-05-05 19:15 | 38.51592 | 25.75065 | 39068 ft | 508 kts | 157° |
| 2026-05-05 19:15 | 38.45157 | 25.78851 | 39063 ft | 508 kts | 157° |
| 2026-05-05 19:16 | 38.38748 | 25.82614 | 39059 ft | 509 kts | 157° |
| 2026-05-05 19:16 | 38.32309 | 25.86387 | 39058 ft | 509 kts | 157° |
| 2026-05-05 19:17 | 38.25906 | 25.90150 | 39046 ft | 509 kts | 151° |
| 2026-05-05 19:17 | 38.19556 | 25.94080 | 39039 ft | 505 kts | 162° |
| 2026-05-05 19:18 | 38.12825 | 25.96695 | 39042 ft | 505 kts | 166° |
| 2026-05-05 19:18 | 38.06104 | 25.99412 | 39050 ft | 507 kts | 163° |
| 2026-05-05 19:19 | 37.99412 | 26.02339 | 39058 ft | 509 kts | 163° |
| 2026-05-05 19:19 | 37.92726 | 26.05331 | 39058 ft | 510 kts | 163° |
| 2026-05-05 19:20 | 37.86080 | 26.08318 | 39067 ft | 510 kts | 163° |
| 2026-05-05 19:20 | 37.79375 | 26.11344 | 39070 ft | 511 kts | 163° |
| 2026-05-05 19:21 | 37.72650 | 26.14380 | 39068 ft | 511 kts | 163° |
| 2026-05-05 19:21 | 37.65989 | 26.17389 | 39068 ft | 511 kts | 163° |
| 2026-05-05 19:22 | 37.59270 | 26.20404 | 39068 ft | 512 kts | 163° |
| 2026-05-05 19:22 | 37.53694 | 26.22903 | 39072 ft | 511 kts | 163° |
| 2026-05-05 19:23 | 37.46971 | 26.25913 | 39068 ft | 511 kts | 163° |
| 2026-05-05 19:23 | 37.40301 | 26.28895 | 39071 ft | 511 kts | 163° |
| 2026-05-05 19:24 | 37.33628 | 26.31966 | 38918 ft | 511 kts | 161° |
| 2026-05-05 19:24 | 37.30299 | 26.33527 | 38673 ft | 510 kts | 162° |
| 2026-05-05 19:24 | 37.26948 | 26.35010 | 38381 ft | 509 kts | 164° |
| 2026-05-05 19:25 | 37.23579 | 26.36440 | 38124 ft | 510 kts | 164° |
| 2026-05-05 19:25 | 37.20260 | 26.37855 | 37847 ft | 511 kts | 164° |
| 2026-05-05 19:25 | 37.16882 | 26.39320 | 37565 ft | 512 kts | 163° |
| 2026-05-05 19:25 | 37.13507 | 26.40802 | 37305 ft | 514 kts | 163° |
| 2026-05-05 19:26 | 37.10120 | 26.42299 | 37029 ft | 515 kts | 163° |
| 2026-05-05 19:26 | 37.06733 | 26.43800 | 36766 ft | 516 kts | 163° |
| 2026-05-05 19:26 | 37.03388 | 26.45282 | 36507 ft | 517 kts | 163° |
| 2026-05-05 19:26 | 36.99978 | 26.46791 | 36252 ft | 518 kts | 163° |
| 2026-05-05 19:27 | 36.96573 | 26.48296 | 35871 ft | 519 kts | 163° |
| 2026-05-05 19:27 | 36.93181 | 26.49934 | 35058 ft | 525 kts | 156° |
| 2026-05-05 19:27 | 36.90020 | 26.52203 | 34021 ft | 533 kts | 146° |
| 2026-05-05 19:27 | 36.87133 | 26.55176 | 32622 ft | 539 kts | 134° |
| 2026-05-05 19:28 | 36.84690 | 26.58703 | 31172 ft | 543 kts | 123° |
| 2026-05-05 19:28 | 36.82779 | 26.62732 | 30114 ft | 535 kts | 111° |
| 2026-05-05 19:28 | 36.81499 | 26.67045 | 29229 ft | 522 kts | 100° |
| 2026-05-05 19:28 | 36.80762 | 26.71412 | 28680 ft | 509 kts | 96° |
| 2026-05-05 19:29 | 36.80003 | 26.75679 | 28379 ft | 498 kts | 99° |
| 2026-05-05 19:29 | 36.79051 | 26.79799 | 27899 ft | 490 kts | 101° |
| 2026-05-05 19:29 | 36.77959 | 26.83819 | 27122 ft | 490 kts | 106° |
| 2026-05-05 19:29 | 36.76704 | 26.87747 | 26530 ft | 485 kts | 107° |
| 2026-05-05 19:30 | 36.75390 | 26.91614 | 25877 ft | 482 kts | 109° |
| 2026-05-05 19:30 | 36.74056 | 26.95393 | 25227 ft | 478 kts | 110° |
| 2026-05-05 19:30 | 36.72701 | 26.99188 | 24558 ft | 476 kts | 110° |
| 2026-05-05 19:30 | 36.71361 | 27.02957 | 23886 ft | 473 kts | 110° |
| 2026-05-05 19:31 | 36.70056 | 27.06652 | 23188 ft | 469 kts | 110° |
| 2026-05-05 19:31 | 36.68762 | 27.10365 | 22617 ft | 460 kts | 108° |
| 2026-05-05 19:31 | 36.67547 | 27.14024 | 21933 ft | 455 kts | 110° |
| 2026-05-05 19:31 | 36.66256 | 27.17608 | 21340 ft | 448 kts | 112° |
| 2026-05-05 19:32 | 36.64990 | 27.21085 | 20731 ft | 442 kts | 111° |
| 2026-05-05 19:32 | 36.63738 | 27.24552 | 20116 ft | 435 kts | 112° |
| 2026-05-05 19:32 | 36.62502 | 27.27968 | 19515 ft | 429 kts | 112° |
| 2026-05-05 19:32 | 36.61294 | 27.31344 | 18911 ft | 422 kts | 111° |
| 2026-05-05 19:33 | 36.60113 | 27.34673 | 18305 ft | 416 kts | 111° |
| 2026-05-05 19:33 | 36.59009 | 27.37917 | 17708 ft | 408 kts | 110° |
| 2026-05-05 19:33 | 36.57897 | 27.41128 | 17133 ft | 400 kts | 111° |
| 2026-05-05 19:33 | 36.56775 | 27.44262 | 16569 ft | 392 kts | 111° |
| 2026-05-05 19:34 | 36.55672 | 27.47331 | 16020 ft | 385 kts | 111° |
| 2026-05-05 19:34 | 36.54594 | 27.50346 | 15474 ft | 378 kts | 111° |
| 2026-05-05 19:34 | 36.53540 | 27.53313 | 14915 ft | 372 kts | 111° |
| 2026-05-05 19:35 | 36.52505 | 27.56238 | 14405 ft | 366 kts | 111° |
| 2026-05-05 19:35 | 36.51566 | 27.58899 | 13953 ft | 361 kts | 109° |
| 2026-05-05 19:35 | 36.50609 | 27.61668 | 13781 ft | 345 kts | 110° |
| 2026-05-05 19:35 | 36.49670 | 27.64334 | 13606 ft | 329 kts | 110° |
| 2026-05-05 19:36 | 36.48761 | 27.66867 | 13444 ft | 313 kts | 110° |
| 2026-05-05 19:36 | 36.47895 | 27.69274 | 13301 ft | 297 kts | 110° |
| 2026-05-05 19:36 | 36.47075 | 27.71561 | 13138 ft | 282 kts | 110° |
| 2026-05-05 19:36 | 36.46426 | 27.73771 | 12973 ft | 262 kts | 99° |
| 2026-05-05 19:37 | 36.46122 | 27.75919 | 12758 ft | 246 kts | 93° |
| 2026-05-05 19:37 | 36.45874 | 27.78031 | 12113 ft | 253 kts | 86° |
| 2026-05-05 19:37 | 36.45777 | 27.80234 | 11270 ft | 258 kts | 78° |
| 2026-05-05 19:37 | 36.45777 | 27.82499 | 10537 ft | 262 kts | 83° |
| 2026-05-05 19:38 | 36.45643 | 27.84736 | 10119 ft | 257 kts | 95° |
| 2026-05-05 19:38 | 36.45189 | 27.86851 | 9727 ft | 254 kts | 102° |
| 2026-05-05 19:38 | 36.44709 | 27.88955 | 9521 ft | 253 kts | 101° |
| 2026-05-05 19:38 | 36.44232 | 27.91039 | 9395 ft | 254 kts | 102° |
| 2026-05-05 19:39 | 36.43831 | 27.93162 | 9261 ft | 250 kts | 95° |
| 2026-05-05 19:39 | 36.43560 | 27.95302 | 9125 ft | 250 kts | 95° |
| 2026-05-05 19:39 | 36.43284 | 27.97431 | 9002 ft | 249 kts | 95° |
| 2026-05-05 19:39 | 36.43002 | 27.99561 | 8861 ft | 248 kts | 95° |
| 2026-05-05 19:40 | 36.42720 | 28.01648 | 8711 ft | 248 kts | 96° |
| 2026-05-05 19:40 | 36.42434 | 28.03769 | 8412 ft | 246 kts | 96° |
| 2026-05-05 19:40 | 36.42155 | 28.05835 | 8112 ft | 241 kts | 95° |
| 2026-05-05 19:40 | 36.41884 | 28.07914 | 7805 ft | 243 kts | 96° |
| 2026-05-05 19:41 | 36.41600 | 28.09967 | 7508 ft | 242 kts | 97° |
| 2026-05-05 19:41 | 36.41306 | 28.12029 | 7207 ft | 241 kts | 97° |
| 2026-05-05 19:41 | 36.41018 | 28.14053 | 6912 ft | 240 kts | 97° |
| 2026-05-05 19:41 | 36.40734 | 28.16101 | 6608 ft | 238 kts | 97° |
| 2026-05-05 19:42 | 36.40457 | 28.18106 | 6307 ft | 237 kts | 97° |
| 2026-05-05 19:42 | 36.40177 | 28.20123 | 6048 ft | 234 kts | 97° |
| 2026-05-05 19:42 | 36.39901 | 28.22107 | 5919 ft | 229 kts | 97° |
| 2026-05-05 19:42 | 36.39638 | 28.23985 | 5774 ft | 218 kts | 97° |
| 2026-05-05 19:43 | 36.39382 | 28.25838 | 5676 ft | 217 kts | 96° |
| 2026-05-05 19:43 | 36.39132 | 28.27664 | 5521 ft | 212 kts | 96° |
| 2026-05-05 19:43 | 36.38887 | 28.29447 | 5167 ft | 207 kts | 96° |
| 2026-05-05 19:43 | 36.38661 | 28.31207 | 4629 ft | 206 kts | 94° |
| 2026-05-05 19:44 | 36.38444 | 28.32937 | 4070 ft | 204 kts | 92° |
| 2026-05-05 19:44 | 36.38513 | 28.34673 | 3489 ft | 199 kts | 73° |
| 2026-05-05 19:44 | 36.39018 | 28.36242 | 2921 ft | 194 kts | 54° |
| 2026-05-05 19:44 | 36.39853 | 28.37474 | 2486 ft | 185 kts | 37° |
| 2026-05-05 19:45 | 36.40949 | 28.38365 | 2317 ft | 188 kts | 21° |
| 2026-05-05 19:45 | 36.42173 | 28.38834 | 2172 ft | 180 kts | 6° |
| 2026-05-05 19:45 | 36.43439 | 28.38865 | 2058 ft | 182 kts | 352° |
| 2026-05-05 19:45 | 36.44651 | 28.38475 | 1993 ft | 179 kts | 337° |
| 2026-05-05 19:46 | 36.45729 | 28.37692 | 1987 ft | 180 kts | 323° |
| 2026-05-05 19:46 | 36.46592 | 28.36580 | 1987 ft | 183 kts | 308° |
| 2026-05-05 19:46 | 36.47194 | 28.35175 | 1986 ft | 187 kts | 292° |
| 2026-05-05 19:46 | 36.47456 | 28.33581 | 1986 ft | 188 kts | 277° |
| 2026-05-05 19:47 | 36.47338 | 28.31952 | 1994 ft | 191 kts | 261° |
| 2026-05-05 19:47 | 36.46891 | 28.30401 | 1989 ft | 193 kts | 251° |
| 2026-05-05 19:47 | 36.46417 | 28.28809 | 1998 ft | 197 kts | 256° |
| 2026-05-05 19:47 | 36.45980 | 28.27205 | 1999 ft | 193 kts | 255° |
| 2026-05-05 19:48 | 36.45527 | 28.25665 | 1998 ft | 192 kts | 252° |
| 2026-05-05 19:48 | 36.45064 | 28.24137 | 1983 ft | 180 kts | 255° |
| 2026-05-05 19:48 | 36.44681 | 28.22781 | 1993 ft | 152 kts | 256° |
| 2026-05-05 19:48 | 36.44336 | 28.21593 | 1904 ft | 148 kts | 256° |
| 2026-05-05 19:49 | 36.43995 | 28.20422 | 1730 ft | 142 kts | 256° |
| 2026-05-05 19:49 | 36.43767 | 28.19640 | 1623 ft | 148 kts | 255° |
| 2026-05-05 19:49 | 36.43302 | 28.18075 | 1329 ft | 143 kts | 254° |
| 2026-05-05 19:49 | 36.42964 | 28.16941 | 1209 ft | 135 kts | 254° |
| 2026-05-05 19:50 | 36.42626 | 28.15823 | 994 ft | 139 kts | 254° |
| 2026-05-05 19:50 | 36.42296 | 28.14697 | 799 ft | 141 kts | 254° |
| 2026-05-05 19:50 | 36.41995 | 28.13559 | 634 ft | 137 kts | 254° |
| 2026-05-05 19:50 | 36.41689 | 28.12426 | 465 ft | 142 kts | 251° |
| 2026-05-05 19:51 | 36.41326 | 28.11295 | 263 ft | 137 kts | 251° |
| 2026-05-05 19:51 | 36.40982 | 28.10173 | 64 ft | 139 kts | 253° |
| 2026-05-05 19:51 | 36.40682 | 28.09104 | 38 ft | 114 kts | 249° |
| 2026-05-05 19:51 | 36.40480 | 28.08414 | 33 ft | 61 kts | 250° |
| 2026-05-05 19:52 | 36.40358 | 28.07991 | 35 ft | 41 kts | 250° |
| 2026-05-05 19:52 | 36.40265 | 28.07673 | 33 ft | 36 kts | 248° |
| 2026-05-05 19:52 | 36.40220 | 28.07605 | 32 ft | 13 kts | 205° |
| 2026-05-05 19:52 | 36.40119 | 28.07622 | 30 ft | 16 kts | 159° |
| 2026-05-05 19:53 | 36.40094 | 28.07742 | 31 ft | 17 kts | 73° |
| 2026-05-05 19:53 | 36.40136 | 28.07886 | 34 ft | 18 kts | 70° |
| 2026-05-05 19:53 | 36.40179 | 28.08039 | 35 ft | 19 kts | 70° |
| 2026-05-05 19:53 | 36.40223 | 28.08191 | 35 ft | 19 kts | 70° |
| 2026-05-05 19:54 | 36.40272 | 28.08356 | 35 ft | 22 kts | 69° |
| 2026-05-05 19:54 | 36.40327 | 28.08537 | 34 ft | 23 kts | 70° |
| 2026-05-05 19:54 | 36.40373 | 28.08703 | 32 ft | 17 kts | 71° |
| 2026-05-05 19:54 | 36.40392 | 28.08814 | 33 ft | 9 kts | 95° |
| 2026-05-05 19:55 | 36.40345 | 28.08863 | 33 ft | 8 kts | 155° |
| 2026-05-05 19:55 | 36.40298 | 28.08882 | 31 ft | 0 kts | 162° |